This is the latest recevied weather packets stored in our database for station/object K9ABJ. If no packets are shown the sender has not sent any weather packets the latest 10 day(s).
| Time | Temp. | Humidity | Pressure | Rain* | Wind** | Luminosity | Snow |
|---|---|---|---|---|---|---|---|
| 1787605274 | 25° C | 58% | 1017.2 hPa | 0 mm | - | 355 W/m² | - |
| 1787604974 | 25.56° C | 57% | 1017.1 hPa | 0 mm | - | 354 W/m² | - |
| 1787604674 | 26.11° C | 58% | 1017.2 hPa | 0 mm | - | 126 W/m² | - |
| 1787604373 | 25.56° C | 57% | 1017.2 hPa | 0 mm | - | 460 W/m² | - |
| 1787604068 | 28.33° C | 52% | 1017.3 hPa | 0 mm | - | 312 W/m² | - |
| 1787603763 | 26.11° C | 57% | 1017.3 hPa | 0 mm | - | 410 W/m² | - |
| 1787603458 | 26.67° C | 55% | 1017.3 hPa | 0 mm | - | 378 W/m² | - |
| 1787603154 | 26.67° C | 54% | 1017.1 hPa | 0 mm | - | 274 W/m² | - |
| 1787602851 | 27.78° C | 55% | 1017.2 hPa | 0 mm | - | 252 W/m² | - |
| 1787602550 | 27.78° C | 54% | 1017.4 hPa | 0 mm | - | 281 W/m² | - |
| 1787602245 | 25° C | 59% | 1017.4 hPa | 0 mm | - | 316 W/m² | - |
| 1787601944 | 26.11° C | 57% | 1017.4 hPa | 0 mm | - | 756 W/m² | - |
| 1787601639 | 26.67° C | 60% | 1017.4 hPa | 0 mm | - | 154 W/m² | - |
| 1787601335 | 26.67° C | 56% | 1017.5 hPa | 0 mm | - | 940 W/m² | - |
| 1787601033 | 26.67° C | 54% | 1017.4 hPa | 0 mm | - | 867 W/m² | - |
| 1787600728 | 25° C | 59% | 1017.5 hPa | 0 mm | - | 750 W/m² | - |
| 1787600424 | 26.11° C | 57% | 1017.3 hPa | 0 mm | - | 554 W/m² | - |
| 1787600120 | 26.67° C | 54% | 1017.6 hPa | 0 mm | - | 317 W/m² | - |
| 1787599816 | 28.33° C | 54% | 1017.6 hPa | 0 mm | - | 305 W/m² | - |
| 1787599512 | 27.78° C | 55% | 1017.7 hPa | 0 mm | - | 270 W/m² | - |
| 1787599208 | 26.11° C | 56% | 1017.7 hPa | 0 mm | - | 1375 W/m² | - |
| 1787598904 | 25.56° C | 56% | 1017.7 hPa | 0 mm | - | 401 W/m² | - |
| 1787598599 | 26.11° C | 54% | 1017.6 hPa | 0 mm | - | 714 W/m² | - |
| 1787598299 | 26.11° C | 54% | 1017.6 hPa | 0 mm | - | 699 W/m² | - |
| 1787597995 | 26.67° C | 55% | 1017.6 hPa | 0 mm | - | 717 W/m² | - |
* Rain latest hour (hover to see other rain measurements)
** Current wind speed in m/s (hover to see current wind gust speed)